Terminal Aerodrome Forecast
Issued by NWS

Home | Current Version | Previous Version | Text Only | Print | Product List | Glossary On
Versions: 1 2 3 4 5 6 7 8 9 10 11 12 13 14 15 16 17 18 19
799
FTUS42 KILM 261142 CCA
TAFCRE
TAF COR
KCRE 261142Z 2612/2712 36011G19KT P6SM BKN010
     FM261400 35012G19KT P6SM BKN025
     FM270300 35010KT P6SM SCT140=

USA.gov is the U.S. government's official web portal to all federal, state and local government web resources and services.